Chilcoot, CA (96105)

6:22 PM PST on December 25, 2014 (GMT -0800)
KCAPORTO2 | Change Station
CLOSE
Current Station
Personal Weather Station
Location: Portola, CA
Elevation: 4923 ft
Nearby Weather Stations

Elev 4923 ft 39.82 °N, 120.47 °W | Updated 8 seconds ago

Partly Cloudy
Partly Cloudy
30.0 °F
Feels Like 30 °F
N
0.0
Wind Variable Wind from NNE
Gusts 0.0 mph

Today
High -- | Low -- °F
--% Chance of Precip.
Yesterday
High -- | Low -- °F
Precip. -- in
7:20 AM 4:41 PM
Waxing Crescent, 21% visible
Pressure 30.06 in
Visibility 10.0 miles
Clouds Mostly Cloudy 3800 ft
Overcast 5000 ft
Windchill 30 °F
Dew Point 18 °F
Humidity 60%
Rainfall 0.00 in
Snow Depth Not available.
UV 0 out of 12
Pollen .30 out of 12
Air Quality Not available.
Flu Activity Not available.
METAR KRTS 260215Z AUTO 02004KT 10SM BKN038 OVC050 M01/M07 A3006 RMK AO2

More Conditions Fewer Conditions

Pressure 30.06 in
Visibility 10.0 miles
Clouds Mostly Cloudy 3800 ft
Overcast 5000 ft
Windchill 30 °F
Dew Point 18 °F
Humidity 60%
Rainfall 0.00 in
Snow Depth Not available.
UV 0 out of 12
Pollen .30 out of 12
Air Quality Not available.
Flu Activity Not available.
METAR KRTS 260215Z AUTO 02004KT 10SM BKN038 OVC050 M01/M07 A3006 RMK AO2

More Conditions Fewer Conditions

10-Day Weather Forecast

Almanac

Astronomy

Dec. 25, 2014 Rise Set
Actual Time
Civil Twilight
Nautical Twilight
Astronomical Twilight
Moon
Length of Visible Light
Length of Day
Tomorrow will be .
, % of the Moon is Illuminated

Today's Extremes

State Highs State Lows

Community

WunderPhotos

Upload Photos

1,780,507 photos uploaded!

WunderBlogs® & News

Nearby

Air Quality

  Air Quality AQ Index Pollutant
Not available.

Snow Depth

Station Depth Elevation

Earthquake Activity

City Distance Mag. Time & Date
Minimum magnitude displayed is 2.5.

Coastal Water Temperatures

Place Temperature

Nearby Weather Stations